Time;durP1;ratioP1;P1;durP2;ratioP2;P2;SDS_P1;SDS_P2;PMS_P1;PMS_P2;Temp;Humidity;BMP_temperature;BMP_pressure;BME280_temperature;BME280_humidity;BME280_pressure;Samples;Min_cycle;Max_cycle;Signal;HPM_P1;HPM_P2
2022/05/16 00:01:20;;;;;;;11.15;2.90;;;;;;;;;;5029025;28;20190;-65
2022/05/16 00:03:46;;;;;;;11.00;2.78;;;;;;;;;;5036537;28;20201;-66
2022/05/16 00:06:11;;;;;;;11.10;3.08;;;;;;;;;;5039213;28;20189;-65
2022/05/16 00:08:36;;;;;;;9.48;2.65;;;;;;;;;;5034323;28;20177;-66
2022/05/16 00:11:02;;;;;;;10.43;2.70;;;;;;;;;;5032566;28;20730;-65
2022/05/16 00:13:27;;;;;;;8.85;2.55;;;;;;;;;;5037964;28;20197;-65
2022/05/16 00:15:53;;;;;;;8.88;2.40;;;;;;;;;;5048938;28;20209;-65
2022/05/16 00:18:18;;;;;;;8.35;2.80;;;;;;;;;;5038221;28;20212;-65
2022/05/16 00:20:43;;;;;;;7.05;2.50;;;;;;;;;;5033273;28;20717;-65
2022/05/16 00:23:09;;;;;;;10.05;2.65;;;;;;;;;;5049502;28;20189;-65
2022/05/16 00:25:35;;;;;;;6.22;2.20;;;;;;;;;;5037750;28;20189;-65
2022/05/16 00:28:00;;;;;;;7.95;3.08;;;;;;;;;;5039940;28;20208;-65
2022/05/16 00:30:25;;;;;;;7.85;2.83;;;;;;;;;;5032566;28;20202;-65
2022/05/16 00:32:51;;;;;;;9.55;2.40;;;;;;;;;;5045727;28;20212;-65
2022/05/16 00:35:20;;;;;;;8.45;2.75;;;;;;;;;;5044943;28;20693;-65
2022/05/16 00:37:45;;;;;;;11.43;2.50;;;;;;;;;;5029877;28;20201;-65
2022/05/16 00:40:12;;;;;;;10.88;2.60;;;;;;;;;;5039444;28;20173;-65
2022/05/16 00:42:38;;;;;;;7.90;3.10;;;;;;;;;;5040962;28;20325;-65
2022/05/16 00:45:05;;;;;;;11.10;3.00;;;;;;;;;;5028958;28;20654;-65
2022/05/16 00:47:30;;;;;;;8.95;2.65;;;;;;;;;;5031811;28;20178;-65
2022/05/16 00:49:56;;;;;;;7.60;2.80;;;;;;;;;;5029331;28;20691;-65
2022/05/16 00:52:27;;;;;;;10.88;2.88;;;;;;;;;;5034084;28;20186;-65
2022/05/16 00:55:24;;;;;;;12.02;2.65;;;;;;;;;;5028319;28;20253;-65
2022/05/16 00:57:53;;;;;;;12.68;3.30;;;;;;;;;;5034381;28;20202;-65
2022/05/16 01:00:32;;;;;;;10.07;2.72;;;;;;;;;;5042243;28;20178;-65
2022/05/16 01:05:50;;;;;;;13.05;3.00;;;;;;;;;;5034597;28;20626;-65
2022/05/16 01:08:18;;;;;;;13.50;3.35;;;;;;;;;;5027728;28;20189;-65
2022/05/16 01:10:43;;;;;;;14.13;3.47;;;;;;;;;;5038894;28;20465;-66
2022/05/16 01:13:09;;;;;;;7.57;2.58;;;;;;;;;;5045235;28;20185;-65
2022/05/16 01:15:45;;;;;;;10.68;2.97;;;;;;;;;;5037270;28;20204;-65
2022/05/16 01:18:13;;;;;;;10.98;3.72;;;;;;;;;;5037485;28;20644;-65
2022/05/16 01:21:02;;;;;;;11.35;2.92;;;;;;;;;;5040053;28;20235;-65
2022/05/16 01:23:35;;;;;;;9.55;3.47;;;;;;;;;;5039910;28;20587;-65
2022/05/16 01:26:06;;;;;;;16.50;3.33;;;;;;;;;;5044109;28;20177;-65
2022/05/16 01:28:31;;;;;;;13.48;3.03;;;;;;;;;;5041054;28;20193;-65
2022/05/16 01:30:56;;;;;;;8.93;3.33;;;;;;;;;;5040340;28;20229;-65
2022/05/16 01:33:24;;;;;;;9.50;3.40;;;;;;;;;;5029910;28;20174;-65
2022/05/16 01:35:50;;;;;;;12.35;3.10;;;;;;;;;;5029585;28;20640;-65
2022/05/16 01:38:23;;;;;;;6.22;2.70;;;;;;;;;;5028816;28;20186;-65
2022/05/16 01:40:51;;;;;;;10.93;2.92;;;;;;;;;;5039561;28;20629;-66
2022/05/16 01:43:18;;;;;;;9.35;2.95;;;;;;;;;;5034803;28;20186;-64
2022/05/16 01:45:44;;;;;;;11.13;3.30;;;;;;;;;;5027640;28;20232;-64
2022/05/16 01:48:11;;;;;;;9.07;2.80;;;;;;;;;;5034290;28;20193;-64
2022/05/16 01:50:38;;;;;;;8.85;3.10;;;;;;;;;;5039402;28;20666;-65
2022/05/16 01:53:03;;;;;;;10.48;3.97;;;;;;;;;;5028362;28;20251;-65
2022/05/16 01:55:29;;;;;;;11.10;3.90;;;;;;;;;;5028057;28;20178;-65
2022/05/16 01:57:54;;;;;;;10.35;3.33;;;;;;;;;;5040170;28;20189;-65
2022/05/16 02:00:20;;;;;;;10.38;3.60;;;;;;;;;;5042861;28;20707;-65
2022/05/16 02:02:46;;;;;;;8.82;3.08;;;;;;;;;;5032113;28;20272;-65
2022/05/16 02:05:14;;;;;;;13.98;3.97;;;;;;;;;;5041390;28;20178;-65
2022/05/16 02:07:40;;;;;;;10.43;3.10;;;;;;;;;;5027756;28;20193;-64
2022/05/16 02:10:08;;;;;;;8.68;3.10;;;;;;;;;;5036744;28;20561;-64
2022/05/16 02:12:34;;;;;;;10.27;3.35;;;;;;;;;;5030131;28;20186;-64
2022/05/16 02:15:01;;;;;;;12.15;3.38;;;;;;;;;;5029199;28;20186;-65
2022/05/16 02:17:26;;;;;;;10.15;3.08;;;;;;;;;;5031524;28;20265;-65
2022/05/16 02:19:52;;;;;;;12.75;3.58;;;;;;;;;;5044017;28;20280;-65
2022/05/16 02:25:00;;;;;;;12.05;3.15;;;;;;;;;;5038742;28;20191;-64
2022/05/16 02:27:26;;;;;;;9.30;3.47;;;;;;;;;;5033275;28;20564;-64
2022/05/16 02:29:51;;;;;;;7.95;3.58;;;;;;;;;;5039828;28;20209;-65
2022/05/16 02:32:17;;;;;;;6.10;2.95;;;;;;;;;;5034560;28;20206;-64
2022/05/16 02:34:44;;;;;;;11.30;3.83;;;;;;;;;;5029137;28;20545;-64
2022/05/16 02:37:10;;;;;;;10.02;3.42;;;;;;;;;;5046666;28;20547;-64
2022/05/16 02:39:36;;;;;;;12.23;3.45;;;;;;;;;;5033977;28;20258;-65
2022/05/16 02:42:01;;;;;;;9.57;3.10;;;;;;;;;;5034097;28;20256;-64
2022/05/16 02:44:26;;;;;;;9.05;3.63;;;;;;;;;;5045312;28;20212;-64
2022/05/16 02:46:52;;;;;;;11.68;3.15;;;;;;;;;;5037278;28;20186;-64
2022/05/16 02:49:17;;;;;;;9.90;3.85;;;;;;;;;;5031868;28;20189;-67
2022/05/16 02:51:42;;;;;;;12.90;3.63;;;;;;;;;;5042495;28;20720;-65
2022/05/16 02:54:08;;;;;;;9.73;3.42;;;;;;;;;;5038234;28;20209;-65
2022/05/16 02:56:34;;;;;;;8.75;3.33;;;;;;;;;;5036072;28;20566;-64
2022/05/16 02:59:00;;;;;;;9.52;3.45;;;;;;;;;;5044479;28;20189;-65
2022/05/16 03:01:26;;;;;;;11.48;3.40;;;;;;;;;;5031561;28;20178;-65
2022/05/16 03:03:51;;;;;;;8.73;3.10;;;;;;;;;;5044447;28;20182;-64
2022/05/16 03:06:18;;;;;;;10.82;3.30;;;;;;;;;;5032830;28;20189;-65
2022/05/16 03:08:44;;;;;;;7.82;3.33;;;;;;;;;;5034722;28;20185;-64
2022/05/16 03:11:09;;;;;;;11.98;3.17;;;;;;;;;;5036773;28;20225;-66
2022/05/16 03:13:35;;;;;;;10.25;3.13;;;;;;;;;;5039792;28;20201;-64
2022/05/16 03:16:01;;;;;;;10.25;3.65;;;;;;;;;;5042017;28;20317;-65
2022/05/16 03:18:31;;;;;;;10.60;3.63;;;;;;;;;;5040643;28;20272;-64
2022/05/16 03:20:57;;;;;;;8.43;3.45;;;;;;;;;;5037502;28;20646;-64
2022/05/16 03:23:23;;;;;;;10.85;3.47;;;;;;;;;;5038458;28;20565;-65
2022/05/16 03:25:49;;;;;;;16.95;3.53;;;;;;;;;;5042407;28;20182;-66
2022/05/16 03:28:14;;;;;;;14.40;4.40;;;;;;;;;;5035814;28;20658;-66
2022/05/16 03:30:40;;;;;;;9.13;3.83;;;;;;;;;;5038579;28;20300;-65
2022/05/16 03:33:06;;;;;;;12.90;3.35;;;;;;;;;;5036212;28;20280;-65
2022/05/16 03:35:32;;;;;;;10.15;3.53;;;;;;;;;;5039950;28;20240;-66
2022/05/16 03:37:58;;;;;;;7.70;3.58;;;;;;;;;;5042554;28;20235;-66
2022/05/16 03:43:07;;;;;;;6.20;3.15;;;;;;;;;;5038407;28;20201;-66
2022/05/16 03:45:32;;;;;;;11.25;3.78;;;;;;;;;;5039747;28;20181;-65
2022/05/16 03:47:57;;;;;;;7.50;3.70;;;;;;;;;;5040014;28;20245;-65
2022/05/16 03:50:23;;;;;;;10.73;3.83;;;;;;;;;;5044976;28;20259;-65
2022/05/16 03:52:49;;;;;;;12.52;4.45;;;;;;;;;;5036737;28;20186;-65
2022/05/16 03:55:16;;;;;;;8.70;3.78;;;;;;;;;;5034828;28;20181;-65
2022/05/16 03:57:42;;;;;;;9.52;3.38;;;;;;;;;;5038052;28;20216;-65
2022/05/16 04:00:11;;;;;;;10.18;4.22;;;;;;;;;;5032990;28;20186;-65
2022/05/16 04:02:38;;;;;;;12.48;3.85;;;;;;;;;;5033049;28;20225;-65
2022/05/16 04:05:05;;;;;;;9.70;3.75;;;;;;;;;;5037453;28;20178;-65
2022/05/16 04:07:31;;;;;;;15.18;3.88;;;;;;;;;;5038197;28;20201;-64
2022/05/16 04:09:56;;;;;;;11.95;4.35;;;;;;;;;;5038001;28;20225;-65
2022/05/16 04:12:22;;;;;;;11.00;3.70;;;;;;;;;;5045638;28;20204;-64
2022/05/16 04:14:49;;;;;;;13.73;3.92;;;;;;;;;;5037010;28;20262;-65
2022/05/16 04:17:14;;;;;;;8.68;3.42;;;;;;;;;;5036311;28;20244;-64
2022/05/16 04:19:39;;;;;;;14.90;4.25;;;;;;;;;;5034538;28;20182;-65
2022/05/16 04:22:05;;;;;;;12.52;4.03;;;;;;;;;;5030665;28;20190;-65
2022/05/16 04:24:30;;;;;;;9.52;3.72;;;;;;;;;;5035335;28;20175;-64
2022/05/16 04:26:55;;;;;;;11.95;4.20;;;;;;;;;;5030671;28;20236;-64
2022/05/16 04:29:21;;;;;;;10.07;3.38;;;;;;;;;;5035613;28;20228;-65
2022/05/16 04:31:46;;;;;;;8.40;3.30;;;;;;;;;;5028181;28;20590;-65
2022/05/16 04:34:12;;;;;;;10.75;3.63;;;;;;;;;;5032024;28;20209;-64
2022/05/16 04:36:39;;;;;;;10.65;4.03;;;;;;;;;;5032550;28;20178;-65
2022/05/16 04:39:04;;;;;;;12.00;3.50;;;;;;;;;;5036816;28;20174;-64
2022/05/16 04:44:13;;;;;;;6.82;3.75;;;;;;;;;;5034562;28;20205;-64
2022/05/16 04:46:39;;;;;;;8.27;3.15;;;;;;;;;;5035134;28;20210;-65
2022/05/16 04:49:04;;;;;;;12.77;3.63;;;;;;;;;;5038226;28;20622;-65
2022/05/16 04:51:30;;;;;;;11.93;3.63;;;;;;;;;;5032750;28;20209;-65
2022/05/16 04:53:56;;;;;;;12.13;4.45;;;;;;;;;;5031015;28;20214;-65
2022/05/16 04:56:21;;;;;;;16.52;4.75;;;;;;;;;;5033093;28;20417;-65
2022/05/16 04:58:46;;;;;;;15.18;4.72;;;;;;;;;;5033656;28;20501;-65
2022/05/16 05:01:12;;;;;;;8.93;3.50;;;;;;;;;;5031393;28;20266;-65
2022/05/16 05:03:37;;;;;;;11.38;3.90;;;;;;;;;;5042205;28;20272;-65
2022/05/16 05:06:03;;;;;;;15.75;4.40;;;;;;;;;;5036865;28;20182;-65
2022/05/16 05:08:28;;;;;;;7.22;3.53;;;;;;;;;;5035699;28;20217;-65
2022/05/16 05:16:38;;;;;;;9.90;3.40;;;;;;;;;;5024871;28;20654;-65
2022/05/16 05:19:04;;;;;;;9.65;3.92;;;;;;;;;;5028073;28;20190;-65
2022/05/16 05:21:30;;;;;;;11.88;3.75;;;;;;;;;;5029525;28;20201;-65
2022/05/16 05:23:56;;;;;;;14.43;3.70;;;;;;;;;;5026988;28;20572;-65
2022/05/16 05:26:21;;;;;;;9.65;4.28;;;;;;;;;;5035238;28;20181;-65
2022/05/16 05:28:47;;;;;;;6.72;3.72;;;;;;;;;;5026996;28;20217;-64
2022/05/16 05:31:15;;;;;;;10.57;3.95;;;;;;;;;;5030757;28;20632;-65
2022/05/16 05:33:42;;;;;;;11.50;3.92;;;;;;;;;;5030628;28;20497;-65
2022/05/16 05:36:08;;;;;;;13.27;4.47;;;;;;;;;;5031616;28;20174;-65
2022/05/16 05:38:36;;;;;;;12.82;4.30;;;;;;;;;;5027964;28;20244;-65
2022/05/16 05:41:05;;;;;;;11.10;4.32;;;;;;;;;;5035963;28;20182;-65
2022/05/16 05:43:31;;;;;;;11.48;3.60;;;;;;;;;;5031908;28;20658;-65
2022/05/16 05:45:56;;;;;;;11.98;3.80;;;;;;;;;;5042252;28;20190;-65
2022/05/16 05:48:21;;;;;;;12.85;3.60;;;;;;;;;;5034616;28;20196;-65
2022/05/16 05:50:47;;;;;;;9.57;3.90;;;;;;;;;;5034927;28;20497;-65
2022/05/16 05:53:12;;;;;;;10.15;3.78;;;;;;;;;;5045377;28;20193;-65
2022/05/16 05:55:39;;;;;;;9.20;3.53;;;;;;;;;;5035183;28;20240;-65
2022/05/16 05:58:04;;;;;;;12.60;3.63;;;;;;;;;;5034406;28;20170;-65
2022/05/16 06:00:29;;;;;;;11.38;3.72;;;;;;;;;;5032746;28;20296;-65
2022/05/16 06:02:55;;;;;;;14.23;3.45;;;;;;;;;;5034279;28;20202;-65
2022/05/16 06:05:22;;;;;;;12.52;4.13;;;;;;;;;;5044359;28;20551;-65
2022/05/16 06:07:47;;;;;;;12.93;3.60;;;;;;;;;;5032300;28;20268;-65
2022/05/16 06:10:13;;;;;;;11.18;3.42;;;;;;;;;;5029541;28;20320;-65
2022/05/16 06:12:39;;;;;;;11.98;3.80;;;;;;;;;;5032629;28;20602;-65
2022/05/16 06:15:07;;;;;;;13.55;3.53;;;;;;;;;;5036972;28;20532;-64
2022/05/16 06:17:35;;;;;;;9.48;3.85;;;;;;;;;;5027366;28;20178;-65
2022/05/16 06:20:01;;;;;;;8.73;3.80;;;;;;;;;;5033121;28;20256;-65
2022/05/16 06:22:29;;;;;;;12.75;3.80;;;;;;;;;;5030995;28;20501;-65
2022/05/16 06:27:38;;;;;;;14.23;4.10;;;;;;;;;;5028443;28;20197;-65
2022/05/16 06:30:04;;;;;;;13.25;3.63;;;;;;;;;;5030207;28;20213;-65
2022/05/16 06:32:29;;;;;;;10.65;3.83;;;;;;;;;;5035080;28;20198;-66
2022/05/16 06:34:56;;;;;;;8.88;3.47;;;;;;;;;;5035042;28;20188;-66
2022/05/16 06:37:22;;;;;;;6.60;3.17;;;;;;;;;;5029619;28;20192;-65
2022/05/16 06:39:47;;;;;;;8.00;3.55;;;;;;;;;;5036968;28;20186;-65
2022/05/16 06:42:12;;;;;;;12.43;3.30;;;;;;;;;;5030011;28;20190;-65
2022/05/16 06:44:38;;;;;;;10.63;3.30;;;;;;;;;;5034116;28;20552;-66
2022/05/16 06:47:05;;;;;;;9.57;3.67;;;;;;;;;;5034477;28;20193;-66
2022/05/16 06:49:30;;;;;;;11.55;3.45;;;;;;;;;;5033663;28;20732;-65
2022/05/16 06:51:56;;;;;;;12.07;3.15;;;;;;;;;;5033355;28;20298;-66
2022/05/16 06:54:22;;;;;;;6.18;2.55;;;;;;;;;;5033610;28;20692;-65
2022/05/16 06:56:47;;;;;;;7.25;2.90;;;;;;;;;;5034329;28;20189;-65
2022/05/16 06:59:12;;;;;;;8.07;2.97;;;;;;;;;;5032722;28;20182;-65
2022/05/16 07:01:38;;;;;;;13.20;3.15;;;;;;;;;;5036245;28;20654;-65
2022/05/16 07:04:04;;;;;;;12.68;3.60;;;;;;;;;;5039926;28;20316;-67
2022/05/16 07:06:30;;;;;;;12.18;3.30;;;;;;;;;;5037238;28;20213;-65
2022/05/16 07:08:55;;;;;;;6.53;3.08;;;;;;;;;;5029837;28;20556;-66
2022/05/16 07:11:21;;;;;;;10.13;2.92;;;;;;;;;;5030613;28;20594;-65
2022/05/16 07:13:46;;;;;;;8.30;2.50;;;;;;;;;;5034190;28;20182;-65
2022/05/16 07:16:11;;;;;;;10.38;3.22;;;;;;;;;;5031211;28;20188;-65
2022/05/16 07:18:37;;;;;;;11.48;3.20;;;;;;;;;;5032297;28;20276;-65
2022/05/16 07:21:04;;;;;;;9.52;2.70;;;;;;;;;;5031082;28;20174;-65
2022/05/16 07:23:29;;;;;;;9.52;2.78;;;;;;;;;;5031686;28;20621;-67
2022/05/16 07:28:39;;;;;;;8.20;2.70;;;;;;;;;;5030242;28;20205;-71
2022/05/16 07:31:05;;;;;;;7.45;3.15;;;;;;;;;;5028775;28;20206;-67
2022/05/16 07:33:31;;;;;;;10.18;3.25;;;;;;;;;;5033661;28;20189;-66
2022/05/16 07:35:56;;;;;;;8.93;2.95;;;;;;;;;;5030831;28;20189;-66
2022/05/16 07:38:25;;;;;;;9.05;2.92;;;;;;;;;;5033615;28;20203;-65
2022/05/16 07:40:51;;;;;;;11.00;3.22;;;;;;;;;;5032574;28;20265;-66
2022/05/16 07:43:18;;;;;;;12.40;2.72;;;;;;;;;;5036828;28;20186;-66
2022/05/16 07:45:44;;;;;;;12.52;3.03;;;;;;;;;;5038228;28;20251;-67
2022/05/16 07:48:09;;;;;;;10.60;3.75;;;;;;;;;;5035713;28;20178;-66
2022/05/16 07:50:36;;;;;;;10.57;2.83;;;;;;;;;;5035674;28;20214;-67
2022/05/16 07:53:04;;;;;;;9.82;2.65;;;;;;;;;;5031633;28;20276;-66
2022/05/16 07:55:30;;;;;;;7.43;2.70;;;;;;;;;;5031918;28;20253;-65
2022/05/16 07:57:56;;;;;;;7.70;2.67;;;;;;;;;;5030372;28;20646;-65
2022/05/16 08:00:23;;;;;;;8.75;2.58;;;;;;;;;;5031449;28;20186;-65
2022/05/16 08:02:50;;;;;;;12.15;2.92;;;;;;;;;;5032336;28;20503;-65
2022/05/16 08:05:16;;;;;;;10.35;2.65;;;;;;;;;;5033536;28;20641;-65
2022/05/16 08:10:31;;;;;;;9.88;2.80;;;;;;;;;;5039441;28;20320;-65
2022/05/16 08:13:06;;;;;;;10.45;2.60;;;;;;;;;;5028394;28;20210;-65
2022/05/16 08:15:33;;;;;;;11.40;2.80;;;;;;;;;;5035122;28;20597;-65
2022/05/16 08:17:59;;;;;;;8.70;2.75;;;;;;;;;;5028890;28;20611;-65
2022/05/16 08:20:25;;;;;;;5.35;2.67;;;;;;;;;;5030703;28;20305;-65
2022/05/16 08:22:51;;;;;;;8.82;2.60;;;;;;;;;;5034131;28;20565;-65
2022/05/16 08:25:17;;;;;;;9.10;2.92;;;;;;;;;;5036213;28;20247;-66
2022/05/16 08:27:42;;;;;;;12.32;2.55;;;;;;;;;;5028442;28;20189;-65
2022/05/16 08:30:09;;;;;;;8.32;3.00;;;;;;;;;;5030562;28;20198;-65
2022/05/16 08:32:34;;;;;;;9.20;2.42;;;;;;;;;;5029046;28;20644;-67
2022/05/16 08:35:05;;;;;;;7.82;2.50;;;;;;;;;;5035365;28;20174;-65
2022/05/16 08:40:15;;;;;;;7.80;2.90;;;;;;;;;;5035528;28;20251;-64
2022/05/16 08:42:53;;;;;;;7.68;2.50;;;;;;;;;;5032057;28;20178;-65
2022/05/16 08:45:31;;;;;;;7.40;3.25;;;;;;;;;;5029152;28;20201;-65
2022/05/16 08:48:11;;;;;;;8.93;2.63;;;;;;;;;;5030786;28;20212;-66
2022/05/16 08:50:41;;;;;;;10.15;2.97;;;;;;;;;;5029700;28;20198;-65
2022/05/16 08:53:13;;;;;;;10.52;3.00;;;;;;;;;;5037570;28;20228;-66
2022/05/16 08:55:48;;;;;;;9.43;3.00;;;;;;;;;;5035397;28;20186;-65
2022/05/16 08:58:21;;;;;;;9.25;2.90;;;;;;;;;;5033325;28;20185;-69
2022/05/16 09:00:59;;;;;;;7.13;3.00;;;;;;;;;;5028467;28;20206;-65
2022/05/16 09:03:43;;;;;;;9.02;3.15;;;;;;;;;;5034463;28;20662;-65
2022/05/16 09:06:17;;;;;;;5.63;2.67;;;;;;;;;;5030936;28;20216;-66
2022/05/16 09:08:50;;;;;;;7.40;3.05;;;;;;;;;;5029254;28;20312;-66
2022/05/16 09:11:33;;;;;;;7.30;2.67;;;;;;;;;;5037775;28;20229;-67
2022/05/16 09:14:19;;;;;;;6.07;2.92;;;;;;;;;;5032778;28;20665;-67
2022/05/16 09:16:51;;;;;;;7.65;2.70;;;;;;;;;;5029795;28;20251;-66
2022/05/16 09:19:43;;;;;;;10.32;3.00;;;;;;;;;;5034759;28;20371;-66
2022/05/16 09:22:24;;;;;;;7.40;3.35;;;;;;;;;;5027506;28;20182;-65
2022/05/16 09:24:58;;;;;;;11.45;3.38;;;;;;;;;;5030422;28;20288;-68
2022/05/16 09:30:15;;;;;;;9.18;2.92;;;;;;;;;;5028184;28;20341;-68
2022/05/16 09:32:48;;;;;;;8.73;2.67;;;;;;;;;;5029828;28;20582;-67
2022/05/16 09:35:32;;;;;;;7.47;2.92;;;;;;;;;;5028306;28;20184;-69
2022/05/16 09:37:58;;;;;;;7.30;3.08;;;;;;;;;;5028633;28;20246;-68
2022/05/16 09:40:32;;;;;;;7.82;3.08;;;;;;;;;;5036977;28;20228;-72
2022/05/16 09:43:23;;;;;;;7.35;3.00;;;;;;;;;;5027981;28;20626;-66
2022/05/16 09:45:58;;;;;;;9.80;3.25;;;;;;;;;;5037465;28;20256;-67
2022/05/16 09:48:24;;;;;;;10.98;3.30;;;;;;;;;;5028588;28;20262;-66
2022/05/16 09:50:59;;;;;;;8.93;3.20;;;;;;;;;;5033195;28;20198;-66
2022/05/16 09:53:33;;;;;;;6.47;2.80;;;;;;;;;;5032356;28;20184;-66
2022/05/16 09:56:03;;;;;;;9.60;2.80;;;;;;;;;;5033643;28;20308;-66
2022/05/16 09:58:47;;;;;;;9.73;2.67;;;;;;;;;;5031254;28;20194;-68
2022/05/16 10:01:27;;;;;;;8.82;2.63;;;;;;;;;;5027649;28;20178;-67
2022/05/16 10:03:52;;;;;;;10.90;3.95;;;;;;;;;;5027513;28;20192;-66
2022/05/16 10:06:30;;;;;;;7.53;2.60;;;;;;;;;;5036972;28;20182;-69
2022/05/16 10:09:03;;;;;;;6.40;3.28;;;;;;;;;;5031252;28;20277;-67
2022/05/16 10:11:29;;;;;;;6.18;3.25;;;;;;;;;;5029235;28;20202;-69
2022/05/16 10:13:55;;;;;;;6.20;2.92;;;;;;;;;;5036588;28;20274;-70
2022/05/16 10:16:24;;;;;;;5.55;2.80;;;;;;;;;;5029013;28;20243;-67
2022/05/16 10:18:54;;;;;;;8.38;2.83;;;;;;;;;;5026794;28;20178;-67
2022/05/16 10:21:35;;;;;;;7.82;2.90;;;;;;;;;;5032307;28;20536;-67
2022/05/16 10:24:01;;;;;;;7.47;3.05;;;;;;;;;;5025767;28;20182;-67
2022/05/16 10:26:33;;;;;;;8.13;3.10;;;;;;;;;;5027386;28;20189;-67
2022/05/16 10:29:01;;;;;;;3.75;2.60;;;;;;;;;;5032386;28;20186;-68
2022/05/16 10:34:30;;;;;;;9.02;3.28;;;;;;;;;;5031043;28;20247;-67
2022/05/16 10:36:58;;;;;;;10.57;3.42;;;;;;;;;;5031885;28;20263;-66
2022/05/16 10:39:26;;;;;;;8.45;3.00;;;;;;;;;;5034175;28;20729;-69
2022/05/16 10:42:10;;;;;;;11.60;3.05;;;;;;;;;;5030879;28;20282;-70
2022/05/16 10:44:48;;;;;;;9.20;2.53;;;;;;;;;;5038433;28;20614;-68
2022/05/16 10:47:24;;;;;;;5.57;2.90;;;;;;;;;;5039021;28;20185;-70
2022/05/16 10:49:56;;;;;;;9.45;3.15;;;;;;;;;;5043513;28;20555;-67
2022/05/16 10:52:33;;;;;;;7.20;2.97;;;;;;;;;;5039661;28;20363;-70
2022/05/16 10:54:58;;;;;;;8.15;3.60;;;;;;;;;;5041402;28;20269;-66
2022/05/16 10:57:31;;;;;;;9.68;3.40;;;;;;;;;;5046222;28;20743;-66
2022/05/16 11:00:07;;;;;;;6.57;2.65;;;;;;;;;;5035456;28;20166;-66
2022/05/16 11:02:46;;;;;;;4.53;2.78;;;;;;;;;;5026834;28;20649;-70
2022/05/16 11:05:44;;;;;;;11.23;3.25;;;;;;;;;;5029567;28;20185;-67
2022/05/16 11:08:24;;;;;;;6.63;2.83;;;;;;;;;;5027739;28;20186;-66
2022/05/16 11:10:49;;;;;;;3.20;2.28;;;;;;;;;;5035133;28;20773;-70
2022/05/16 11:13:40;;;;;;;6.47;3.10;;;;;;;;;;5028942;28;20509;-68
2022/05/16 11:16:14;;;;;;;8.73;2.38;;;;;;;;;;5038599;28;20174;-66
2022/05/16 11:18:46;;;;;;;9.25;2.92;;;;;;;;;;5028427;28;20269;-70
2022/05/16 11:21:49;;;;;;;8.07;2.65;;;;;;;;;;5036751;28;20535;-67
2022/05/16 11:24:29;;;;;;;6.80;2.67;;;;;;;;;;5044456;28;20193;-67
2022/05/16 11:27:31;;;;;;;6.10;2.53;;;;;;;;;;5041691;28;20186;-68
2022/05/16 11:30:08;;;;;;;6.13;2.58;;;;;;;;;;5046522;28;20208;-67
2022/05/16 11:33:14;;;;;;;5.65;2.38;;;;;;;;;;5030462;28;20619;-67
2022/05/16 11:35:45;;;;;;;5.60;2.75;;;;;;;;;;5039346;28;20185;-66
2022/05/16 11:38:24;;;;;;;8.90;2.92;;;;;;;;;;5046658;28;20193;-67
2022/05/16 11:41:14;;;;;;;7.97;3.13;;;;;;;;;;5038324;28;20268;-66
2022/05/16 11:43:52;;;;;;;4.65;2.60;;;;;;;;;;5034077;28;20669;-66
2022/05/16 11:46:47;;;;;;;7.68;2.60;;;;;;;;;;5041455;28;20356;-66
2022/05/16 11:49:24;;;;;;;8.25;3.70;;;;;;;;;;5038791;28;20190;-66
2022/05/16 11:52:38;;;;;;;8.23;3.03;;;;;;;;;;5032899;28;20216;-67
2022/05/16 12:00:31;;;;;;;12.45;2.92;;;;;;;;;;5027114;28;20680;-67
2022/05/16 12:00:52;;;;;;;5.90;3.05;;;;;;;;;;5031674;28;20185;-66
2022/05/16 12:03:20;;;;;;;4.57;2.80;;;;;;;;;;5044193;28;20537;-67
2022/05/16 12:06:23;;;;;;;6.75;3.13;;;;;;;;;;5040549;28;20610;-66
2022/05/16 12:08:48;;;;;;;4.78;3.38;;;;;;;;;;5028928;28;20196;-68
2022/05/16 12:11:25;;;;;;;8.57;3.13;;;;;;;;;;5041871;28;20321;-66
2022/05/16 12:14:00;;;;;;;6.18;2.80;;;;;;;;;;5036498;28;20178;-66
2022/05/16 12:16:31;;;;;;;5.68;2.88;;;;;;;;;;5041873;28;20189;-67
2022/05/16 12:19:23;;;;;;;13.02;3.25;;;;;;;;;;5045108;28;20561;-66
2022/05/16 12:21:58;;;;;;;6.13;3.22;;;;;;;;;;5030482;28;20178;-66
2022/05/16 12:24:27;;;;;;;6.22;3.30;;;;;;;;;;5042627;28;20209;-67
2022/05/16 12:27:23;;;;;;;7.15;2.78;;;;;;;;;;5034789;28;20650;-67
2022/05/16 12:29:52;;;;;;;6.25;2.65;;;;;;;;;;5035596;28;20181;-68
2022/05/16 12:32:42;;;;;;;5.57;2.60;;;;;;;;;;5035897;28;20288;-67
2022/05/16 12:35:14;;;;;;;5.28;2.83;;;;;;;;;;5038090;28;20170;-66
2022/05/16 12:37:40;;;;;;;6.82;3.00;;;;;;;;;;5035422;28;20189;-67
2022/05/16 12:40:18;;;;;;;6.13;3.20;;;;;;;;;;5041700;28;20170;-67
2022/05/16 12:42:47;;;;;;;5.47;3.13;;;;;;;;;;5031376;28;20193;-67
2022/05/16 12:45:32;;;;;;;6.53;3.40;;;;;;;;;;5030432;28;20190;-68
2022/05/16 12:48:35;;;;;;;7.63;3.55;;;;;;;;;;5028609;28;20190;-67
2022/05/16 12:51:31;;;;;;;6.22;3.08;;;;;;;;;;5037290;28;20706;-67
2022/05/16 12:54:23;;;;;;;6.18;3.25;;;;;;;;;;5031517;28;20189;-67
2022/05/16 12:56:54;;;;;;;4.63;2.70;;;;;;;;;;5028182;28;20360;-69
2022/05/16 12:59:41;;;;;;;7.28;3.00;;;;;;;;;;5030514;28;20178;-67
2022/05/16 13:02:40;;;;;;;6.82;3.45;;;;;;;;;;5035966;28;20189;-70
2022/05/16 13:05:29;;;;;;;6.78;3.83;;;;;;;;;;5032135;28;20173;-73
2022/05/16 13:07:57;;;;;;;5.03;3.40;;;;;;;;;;5032359;28;20653;-67
2022/05/16 13:10:34;;;;;;;8.48;3.83;;;;;;;;;;5032437;28;20226;-67
2022/05/16 13:13:07;;;;;;;7.82;3.33;;;;;;;;;;5028288;28;20185;-67
2022/05/16 13:15:39;;;;;;;6.13;3.15;;;;;;;;;;5035004;28;20192;-66
2022/05/16 13:18:10;;;;;;;9.48;4.10;;;;;;;;;;5027776;28;20190;-67
2022/05/16 13:20:39;;;;;;;9.07;3.92;;;;;;;;;;5033567;28;20638;-66
2022/05/16 13:23:05;;;;;;;6.13;3.97;;;;;;;;;;5035053;28;20253;-69
2022/05/16 13:29:21;;;;;;;5.38;3.30;;;;;;;;;;5031228;28;20265;-69
2022/05/16 13:31:02;;;;;;;8.50;4.22;;;;;;;;;;5029404;28;20283;-67
2022/05/16 13:33:35;;;;;;;8.45;3.90;;;;;;;;;;5028751;28;20265;-66
2022/05/16 13:36:17;;;;;;;13.50;4.88;;;;;;;;;;5028390;28;20194;-67
2022/05/16 13:38:44;;;;;;;11.90;5.47;;;;;;;;;;5030208;28;20178;-70
2022/05/16 13:41:09;;;;;;;9.20;4.63;;;;;;;;;;5035007;28;20248;-68
2022/05/16 13:43:35;;;;;;;7.07;4.82;;;;;;;;;;5033809;28;20177;-68
2022/05/16 13:46:06;;;;;;;13.25;5.50;;;;;;;;;;5025655;28;20196;-68
2022/05/16 13:48:32;;;;;;;9.25;6.18;;;;;;;;;;5038256;28;20185;-67
2022/05/16 13:50:59;;;;;;;10.40;6.25;;;;;;;;;;5032849;28;20209;-67
2022/05/16 13:53:26;;;;;;;10.50;7.88;;;;;;;;;;5029377;28;20182;-70
2022/05/16 13:55:52;;;;;;;14.02;7.70;;;;;;;;;;5042980;28;20186;-68
2022/05/16 13:58:18;;;;;;;19.67;8.88;;;;;;;;;;5029961;28;20186;-66
2022/05/16 14:00:47;;;;;;;11.60;9.02;;;;;;;;;;5027551;28;20181;-67
2022/05/16 14:03:30;;;;;;;18.10;9.88;;;;;;;;;;5028521;28;20368;-66
2022/05/16 14:05:55;;;;;;;13.63;8.15;;;;;;;;;;5028380;28;20184;-67
2022/05/16 14:08:44;;;;;;;13.05;8.00;;;;;;;;;;5027345;28;20186;-67
2022/05/16 14:11:14;;;;;;;13.13;6.03;;;;;;;;;;5031366;28;20702;-67
2022/05/16 14:13:46;;;;;;;11.68;5.60;;;;;;;;;;5033595;28;20714;-66
2022/05/16 14:16:16;;;;;;;8.90;5.80;;;;;;;;;;5029021;28;20182;-67
2022/05/16 14:18:48;;;;;;;9.02;5.72;;;;;;;;;;5026576;28;20719;-66
2022/05/16 14:21:13;;;;;;;15.55;6.10;;;;;;;;;;5026213;28;20209;-66
2022/05/16 14:24:02;;;;;;;11.27;6.93;;;;;;;;;;5031853;28;20218;-66
2022/05/16 14:26:39;;;;;;;8.40;6.15;;;;;;;;;;5030569;28;20471;-66
2022/05/16 14:29:20;;;;;;;10.07;6.50;;;;;;;;;;5029353;28;20523;-65
2022/05/16 14:32:05;;;;;;;11.23;6.32;;;;;;;;;;5029153;28;20218;-66
2022/05/16 14:34:36;;;;;;;13.50;6.75;;;;;;;;;;5031834;28;20537;-67
2022/05/16 14:37:23;;;;;;;10.43;6.40;;;;;;;;;;5026144;28;20540;-66
2022/05/16 14:40:18;;;;;;;10.55;6.97;;;;;;;;;;5022318;28;20178;-66
2022/05/16 14:42:45;;;;;;;14.40;6.32;;;;;;;;;;5033763;28;20266;-67
2022/05/16 14:46:42;;;;;;;12.43;6.63;;;;;;;;;;5034564;28;20256;-67
2022/05/16 14:48:07;;;;;;;9.55;6.75;;;;;;;;;;5030876;28;20317;-67
2022/05/16 14:50:33;;;;;;;10.07;6.43;;;;;;;;;;5034454;28;20647;-66
2022/05/16 14:53:00;;;;;;;8.85;6.43;;;;;;;;;;5033059;28;20277;-67
2022/05/16 14:55:31;;;;;;;16.73;6.70;;;;;;;;;;5044195;28;20641;-67
2022/05/16 14:57:56;;;;;;;12.38;6.95;;;;;;;;;;5036350;28;20190;-64
2022/05/16 15:05:51;;;;;;;10.13;6.82;;;;;;;;;;5037335;28;20196;-64
2022/05/16 15:08:23;;;;;;;9.23;6.80;;;;;;;;;;5040315;28;20186;-65
2022/05/16 15:10:49;;;;;;;9.57;6.35;;;;;;;;;;5045471;28;20232;-66
2022/05/16 15:13:14;;;;;;;9.35;6.00;;;;;;;;;;5032600;28;20186;-66
2022/05/16 15:15:40;;;;;;;10.35;5.68;;;;;;;;;;5039075;28;20181;-65
2022/05/16 15:18:05;;;;;;;11.43;5.82;;;;;;;;;;5031910;28;20186;-65
2022/05/16 15:20:31;;;;;;;10.98;5.00;;;;;;;;;;5035077;28;20576;-66
2022/05/16 15:22:56;;;;;;;9.32;4.68;;;;;;;;;;5041321;28;20189;-65
2022/05/16 15:25:22;;;;;;;13.88;5.13;;;;;;;;;;5030661;28;20209;-65
2022/05/16 15:27:47;;;;;;;9.55;4.82;;;;;;;;;;5028358;28;20178;-65
2022/05/16 15:30:13;;;;;;;11.13;5.45;;;;;;;;;;5032578;28;20218;-70
2022/05/16 15:32:39;;;;;;;21.75;15.85;;;;;;;;;;5031323;28;20202;-70
2022/05/16 15:35:05;;;;;;;22.00;16.20;;;;;;;;;;5034547;28;20205;-66
2022/05/16 15:37:31;;;;;;;20.80;16.38;;;;;;;;;;5034431;28;20694;-65
2022/05/16 15:39:58;;;;;;;25.42;16.90;;;;;;;;;;5034052;28;20249;-68